Time;durP1;ratioP1;P1;durP2;ratioP2;P2;SDS_P1;SDS_P2;PMS_P1;PMS_P2;Temp;Humidity;BMP_temperature;BMP_pressure;BME280_temperature;BME280_humidity;BME280_pressure;Samples;Min_cycle;Max_cycle;Signal;HPM_P1;HPM_P2
2023/10/31 00:00:03;;;;;;;;;;;;;;;-144.99;100.00;52499.06;5084437;28;20009;-70
2023/10/31 00:02:30;;;;;;;;;;;;;;;-144.99;100.00;52490.91;5084438;28;20386;-69
2023/10/31 00:04:56;;;;;;;;;;;;;;;-144.99;100.00;52480.72;5085339;28;19975;-70
2023/10/31 00:07:24;;;;;;;;;;;;;;;-144.99;100.00;52509.25;5086943;28;19928;-69
2023/10/31 00:09:50;;;;;;;;;;;;;;;-144.99;100.00;52505.16;5082031;28;20344;-70
2023/10/31 00:12:17;;;;;;;;;;;;;;;-144.99;100.00;52533.69;5072881;28;19989;-69
2023/10/31 00:14:43;;;;;;;;;;;;;;;-144.99;100.00;52503.13;5074073;28;20398;-70
2023/10/31 00:17:10;;;;;;;;;;;;;;;-144.99;100.00;52497.00;5084818;28;19928;-69
2023/10/31 00:19:37;;;;;;;;;;;;;;;-144.99;100.00;52484.78;5076733;28;19928;-70
2023/10/31 00:22:03;;;;;;;;;;;;;;;-144.99;100.00;52488.84;5084496;28;20038;-70
2023/10/31 00:24:32;;;;;;;;;;;;;;;-144.99;100.00;52492.94;5083661;28;19932;-67
2023/10/31 00:26:58;;;;;;;;;;;;;;;-144.99;100.00;52452.16;5085456;28;20484;-70
2023/10/31 00:29:24;;;;;;;;;;;;;;;-144.99;100.00;52464.41;5084878;28;19963;-73
2023/10/31 00:31:51;;;;;;;;;;;;;;;-144.99;100.00;52464.41;5082493;28;19928;-73
2023/10/31 00:34:17;;;;;;;;;;;;;;;-144.99;100.00;52480.72;5077766;28;20030;-69
2023/10/31 00:36:44;;;;;;;;;;;;;;;-144.99;100.00;52484.78;5084262;28;19962;-69
2023/10/31 00:39:10;;;;;;;;;;;;;;;-144.99;100.00;52472.56;5082768;28;19925;-72
2023/10/31 00:41:38;;;;;;;;;;;;;;;-144.99;100.00;52492.94;5081449;28;20453;-65
2023/10/31 00:44:05;;;;;;;;;;;;;;;-144.99;100.00;52497.00;5085515;28;19955;-65
2023/10/31 00:46:31;;;;;;;;;;;;;;;-144.99;100.00;52464.41;5078273;28;20043;-68
2023/10/31 00:48:58;;;;;;;;;;;;;;;-144.99;100.00;52468.47;5084720;28;20382;-67
2023/10/31 00:51:24;;;;;;;;;;;;;;;-144.99;100.00;52468.47;5086605;28;19979;-79
2023/10/31 00:53:51;;;;;;;;;;;;;;;-144.99;100.00;52480.72;5079807;28;19932;-67
2023/10/31 00:56:17;;;;;;;;;;;;;;;-144.99;100.00;52456.25;5074347;28;20457;-68
2023/10/31 00:58:45;;;;;;;;;;;;;;;-144.99;100.00;52464.41;5078992;28;20011;-69
2023/10/31 01:01:12;;;;;;;;;;;;;;;-144.99;100.00;52505.16;5084809;28;20020;-68
2023/10/31 01:03:38;;;;;;;;;;;;;;;-144.99;100.00;52484.78;5077559;28;19924;-70
2023/10/31 01:06:05;;;;;;;;;;;;;;;-144.99;100.00;52492.94;5079571;28;20381;-72
2023/10/31 01:08:31;;;;;;;;;;;;;;;-144.99;100.00;52480.72;5069901;28;19928;-67
2023/10/31 01:10:58;;;;;;;;;;;;;;;-144.99;100.00;52486.81;5082590;28;19967;-67
2023/10/31 01:13:24;;;;;;;;;;;;;;;-144.99;100.00;52501.09;5076537;28;20022;-75
2023/10/31 01:15:52;;;;;;;;;;;;;;;-144.99;100.00;52448.09;5071713;28;20564;-75
2023/10/31 01:18:19;;;;;;;;;;;;;;;-144.99;100.00;52501.09;5085641;28;19929;-75
2023/10/31 01:20:45;;;;;;;;;;;;;;;-144.99;100.00;52513.31;5090784;28;19950;-75
2023/10/31 01:23:12;;;;;;;;;;;;;;;-144.99;100.00;52476.63;5089354;28;19928;-76
2023/10/31 01:25:38;;;;;;;;;;;;;;;-144.99;100.00;52460.31;5089897;28;20363;-74
2023/10/31 01:28:05;;;;;;;;;;;;;;;-144.99;100.00;52464.41;5081842;28;20010;-75
2023/10/31 01:30:31;;;;;;;;;;;;;;;-144.99;100.00;52435.88;5090218;28;20431;-76
2023/10/31 01:32:59;;;;;;;;;;;;;;;-144.99;100.00;52492.94;5080976;28;19967;-68
2023/10/31 01:35:25;;;;;;;;;;;;;;;-144.99;100.00;52497.00;5081632;28;19971;-68
2023/10/31 01:37:52;;;;;;;;;;;;;;;-144.99;100.00;52484.78;5086889;28;19979;-67
2023/10/31 01:40:18;;;;;;;;;;;;;;;-144.99;100.00;52513.31;5082148;28;19928;-66
2023/10/31 01:42:45;;;;;;;;;;;;;;;-144.99;100.00;52427.72;5088273;28;19951;-66
2023/10/31 01:45:12;;;;;;;;;;;;;;;-144.99;100.00;52488.84;5086806;28;20011;-70
2023/10/31 01:47:38;;;;;;;;;;;;;;;-144.99;100.00;52452.16;5082951;28;19932;-69
2023/10/31 01:50:07;;;;;;;;;;;;;;;-144.99;100.00;52452.16;5087088;28;20490;-68
2023/10/31 01:52:35;;;;;;;;;;;;;;;-144.99;100.00;52492.94;5080054;28;20018;-71
2023/10/31 01:55:03;;;;;;;;;;;;;;;-144.99;100.00;52486.81;5079145;28;19935;-69
2023/10/31 01:57:29;;;;;;;;;;;;;;;-144.99;100.00;52482.75;5086921;28;20034;-68
2023/10/31 01:59:55;;;;;;;;;;;;;;;-144.99;100.00;52497.00;5080687;28;20006;-69
2023/10/31 02:02:23;;;;;;;;;;;;;;;-144.99;100.00;52464.41;5087683;28;20047;-68
2023/10/31 02:04:50;;;;;;;;;;;;;;;-144.99;100.00;52501.09;5086188;28;19959;-69
2023/10/31 02:07:18;;;;;;;;;;;;;;;-144.99;100.00;52444.03;5083067;28;20005;-67
2023/10/31 02:09:44;;;;;;;;;;;;;;;-144.99;100.00;52472.56;5088363;28;20007;-67
2023/10/31 02:12:11;;;;;;;;;;;;;;;-144.99;100.00;52497.00;5083592;28;20046;-69
2023/10/31 02:14:37;;;;;;;;;;;;;;;-144.99;100.00;52492.94;5079191;28;20015;-69
2023/10/31 02:17:04;;;;;;;;;;;;;;;-144.99;100.00;52444.03;5085764;28;19932;-71
2023/10/31 02:19:30;;;;;;;;;;;;;;;-144.99;100.00;52435.88;5080221;28;20031;-70
2023/10/31 02:21:59;;;;;;;;;;;;;;;-144.99;100.00;52497.00;5082775;28;20279;-69
2023/10/31 02:24:26;;;;;;;;;;;;;;;-144.99;100.00;52488.84;5075713;28;20022;-67
2023/10/31 02:26:52;;;;;;;;;;;;;;;-144.99;100.00;52466.44;5077402;28;19928;-69
2023/10/31 02:29:19;;;;;;;;;;;;;;;-144.99;100.00;52464.41;5088029;28;19924;-68
2023/10/31 02:31:45;;;;;;;;;;;;;;;-144.99;100.00;52435.88;5088306;28;19974;-69
2023/10/31 02:34:12;;;;;;;;;;;;;;;-144.99;100.00;52439.94;5080654;28;20051;-68
2023/10/31 02:36:38;;;;;;;;;;;;;;;-144.99;100.00;52497.00;5086930;28;19927;-71
2023/10/31 02:39:06;;;;;;;;;;;;;;;-144.99;100.00;52513.31;5086011;28;19963;-69
2023/10/31 02:41:32;;;;;;;;;;;;;;;-144.99;100.00;52460.31;5088118;28;19963;-70
2023/10/31 02:43:59;;;;;;;;;;;;;;;-144.99;100.00;52480.72;5081116;28;19928;-68
2023/10/31 02:46:25;;;;;;;;;;;;;;;-144.99;100.00;52444.03;5082927;28;19975;-68
2023/10/31 02:48:52;;;;;;;;;;;;;;;-144.99;100.00;52472.56;5087620;28;19959;-70
2023/10/31 02:51:18;;;;;;;;;;;;;;;-144.99;100.00;52460.31;5088368;28;20031;-70
2023/10/31 02:53:45;;;;;;;;;;;;;;;-144.99;100.00;52452.16;5088105;28;20010;-69
2023/10/31 02:56:12;;;;;;;;;;;;;;;-144.99;100.00;52494.97;5084737;28;19964;-68
2023/10/31 02:58:39;;;;;;;;;;;;;;;-144.99;100.00;52492.94;5082589;28;19970;-78
2023/10/31 03:01:06;;;;;;;;;;;;;;;-144.99;100.00;52460.31;5079928;28;20000;-81
2023/10/31 03:03:32;;;;;;;;;;;;;;;-144.99;100.00;52452.16;5095149;28;19924;-79
2023/10/31 03:05:58;;;;;;;;;;;;;;;-144.99;100.00;52460.31;5090523;28;19924;-79
2023/10/31 03:08:25;;;;;;;;;;;;;;;-144.99;100.00;52464.41;5082571;28;19968;-73
2023/10/31 03:10:52;;;;;;;;;;;;;;;-144.99;100.00;52468.47;5078967;28;19994;-73
2023/10/31 03:13:20;;;;;;;;;;;;;;;-144.99;100.00;52482.75;5078861;28;19935;-72
2023/10/31 03:15:47;;;;;;;;;;;;;;;-144.99;100.00;52497.00;5085093;28;20442;-73
2023/10/31 03:18:14;;;;;;;;;;;;;;;-144.99;100.00;52452.16;5082634;28;19965;-72
2023/10/31 03:20:40;;;;;;;;;;;;;;;-144.99;100.00;52468.47;5088384;28;20309;-70
2023/10/31 03:23:07;;;;;;;;;;;;;;;-144.99;100.00;52464.41;5087814;28;19928;-71
2023/10/31 03:25:33;;;;;;;;;;;;;;;-144.99;100.00;52444.03;5086815;28;19971;-71
2023/10/31 03:28:00;;;;;;;;;;;;;;;-144.99;100.00;52439.94;5083251;28;20617;-71
2023/10/31 03:30:28;;;;;;;;;;;;;;;-144.99;100.00;52513.31;5080377;28;20051;-69
2023/10/31 03:32:54;;;;;;;;;;;;;;;-144.99;100.00;52478.66;5078354;28;20309;-68
2023/10/31 03:35:21;;;;;;;;;;;;;;;-144.99;100.00;52441.97;4731254;28;9999628;-79
2023/10/31 03:37:47;;;;;;;;;;;;;;;-144.99;100.00;52476.63;5087778;28;20014;-77
2023/10/31 03:40:14;;;;;;;;;;;;;;;-144.99;100.00;52460.31;5079934;28;19998;-77
2023/10/31 03:42:40;;;;;;;;;;;;;;;-144.99;100.00;52472.56;5084399;28;19974;-77
2023/10/31 03:45:07;;;;;;;;;;;;;;;-144.99;100.00;52472.56;5083720;28;19958;-79
2023/10/31 03:47:35;;;;;;;;;;;;;;;-144.99;100.00;52460.31;5086555;28;20044;-77
2023/10/31 03:50:02;;;;;;;;;;;;;;;-144.99;100.00;52494.97;5089677;28;19928;-76
2023/10/31 03:52:28;;;;;;;;;;;;;;;-144.99;100.00;52501.09;5089231;28;19985;-77
2023/10/31 03:54:55;;;;;;;;;;;;;;;-144.99;100.00;52492.94;5079652;28;20019;-73
2023/10/31 03:57:21;;;;;;;;;;;;;;;-144.99;100.00;52490.91;5086632;28;19972;-72
2023/10/31 03:59:48;;;;;;;;;;;;;;;-144.99;100.00;52505.16;5088005;28;19973;-72
2023/10/31 04:02:14;;;;;;;;;;;;;;;-144.99;100.00;52501.09;5078856;28;19932;-72
2023/10/31 04:04:42;;;;;;;;;;;;;;;-144.99;100.00;52484.78;5082992;28;19924;-73
2023/10/31 04:07:08;;;;;;;;;;;;;;;-144.99;100.00;52505.16;5084453;28;19985;-73
2023/10/31 04:09:35;;;;;;;;;;;;;;;-144.99;100.00;52448.09;5089174;28;20260;-72
2023/10/31 04:12:01;;;;;;;;;;;;;;;-144.99;100.00;52464.41;5089055;28;20374;-70
2023/10/31 04:14:28;;;;;;;;;;;;;;;-144.99;100.00;52488.84;5082241;28;19980;-71
2023/10/31 04:16:54;;;;;;;;;;;;;;;-144.99;100.00;52480.72;5082641;28;20015;-70
2023/10/31 04:19:21;;;;;;;;;;;;;;;-144.99;100.00;52484.78;5082447;28;20010;-66
2023/10/31 04:21:49;;;;;;;;;;;;;;;-144.99;100.00;52484.78;5085513;28;19928;-69
2023/10/31 04:24:15;;;;;;;;;;;;;;;-144.99;100.00;52509.25;5088321;28;20279;-67
2023/10/31 04:26:41;;;;;;;;;;;;;;;-144.99;100.00;52484.78;5083405;28;19933;-67
2023/10/31 04:29:08;;;;;;;;;;;;;;;-144.99;100.00;52472.56;5087671;28;19924;-68
2023/10/31 04:31:34;;;;;;;;;;;;;;;-144.99;100.00;52446.06;5088763;28;20249;-66
2023/10/31 04:34:01;;;;;;;;;;;;;;;-144.99;100.00;52501.09;5083131;28;20340;-65
2023/10/31 04:36:27;;;;;;;;;;;;;;;-144.99;100.00;52423.63;5088170;28;19982;-67
2023/10/31 04:38:55;;;;;;;;;;;;;;;-144.99;100.00;52486.81;5085604;28;19980;-68
2023/10/31 04:41:22;;;;;;;;;;;;;;;-144.99;100.00;52452.16;5088990;28;19951;-65
2023/10/31 04:43:48;;;;;;;;;;;;;;;-144.99;100.00;52472.56;5086338;28;20019;-66
2023/10/31 04:46:15;;;;;;;;;;;;;;;-144.99;100.00;52454.22;5088541;28;19959;-64
2023/10/31 04:48:41;;;;;;;;;;;;;;;-144.99;100.00;52488.84;5082888;28;20382;-60
2023/10/31 04:51:08;;;;;;;;;;;;;;;-144.99;100.00;52427.72;5090157;28;19961;-62
2023/10/31 04:53:34;;;;;;;;;;;;;;;-144.99;100.00;52472.56;5090296;28;19964;-61
2023/10/31 04:56:02;;;;;;;;;;;;;;;-144.99;100.00;52480.72;5085084;28;20023;-61
2023/10/31 04:58:29;;;;;;;;;;;;;;;-144.99;100.00;52446.06;5088456;28;19983;-62
2023/10/31 05:00:55;;;;;;;;;;;;;;;-144.99;100.00;52482.75;5089951;28;20000;-62
2023/10/31 05:03:22;;;;;;;;;;;;;;;-144.99;100.00;52466.44;5092216;28;19924;-63
2023/10/31 05:05:48;;;;;;;;;;;;;;;-144.99;100.00;52492.94;5086828;28;20026;-66
2023/10/31 05:08:15;;;;;;;;;;;;;;;-144.99;100.00;52427.72;5079932;28;20044;-66
2023/10/31 05:10:41;;;;;;;;;;;;;;;-144.99;100.00;52452.16;5090247;28;20344;-66
2023/10/31 05:13:09;;;;;;;;;;;;;;;-144.99;100.00;52480.72;5085492;28;19924;-71
2023/10/31 05:15:36;;;;;;;;;;;;;;;-144.99;100.00;52456.25;5091142;28;20230;-66
2023/10/31 05:18:02;;;;;;;;;;;;;;;-144.99;100.00;52476.63;5092384;28;19971;-68
2023/10/31 05:20:29;;;;;;;;;;;;;;;-144.99;100.00;52444.03;5087906;28;19924;-70
2023/10/31 05:22:55;;;;;;;;;;;;;;;-144.99;100.00;52474.59;5089059;28;19966;-69
2023/10/31 05:25:22;;;;;;;;;;;;;;;-144.99;100.00;52464.41;5091532;28;20024;-66
2023/10/31 05:27:48;;;;;;;;;;;;;;;-144.99;100.00;52462.34;5089609;28;19947;-65
2023/10/31 05:30:16;;;;;;;;;;;;;;;-144.99;100.00;52501.09;5091205;28;20430;-66
2023/10/31 05:32:44;;;;;;;;;;;;;;;-144.99;100.00;52468.47;5085205;28;20332;-66
2023/10/31 05:35:10;;;;;;;;;;;;;;;-144.99;100.00;52513.31;5082992;28;19928;-70
2023/10/31 05:37:37;;;;;;;;;;;;;;;-144.99;100.00;52452.16;5091089;28;20087;-66
2023/10/31 05:40:04;;;;;;;;;;;;;;;-144.99;100.00;52488.84;5090339;28;20031;-65
2023/10/31 05:42:31;;;;;;;;;;;;;;;-144.99;100.00;52472.56;5086204;28;20024;-75
2023/10/31 05:44:57;;;;;;;;;;;;;;;-144.99;100.00;52464.41;5081749;28;19982;-67
2023/10/31 05:47:25;;;;;;;;;;;;;;;-144.99;100.00;52435.88;5089476;28;20373;-74
2023/10/31 05:49:51;;;;;;;;;;;;;;;-144.99;100.00;52529.63;5082300;28;19968;-75
2023/10/31 05:52:18;;;;;;;;;;;;;;;-144.99;100.00;52468.47;5091339;28;20002;-73
2023/10/31 05:54:44;;;;;;;;;;;;;;;-144.99;100.00;52448.09;5082762;28;20382;-74
2023/10/31 05:57:11;;;;;;;;;;;;;;;-144.99;100.00;52513.31;5085190;28;19989;-75
2023/10/31 05:59:38;;;;;;;;;;;;;;;-144.99;100.00;52439.94;5087741;28;19935;-73
2023/10/31 06:02:04;;;;;;;;;;;;;;;-144.99;100.00;52488.84;5087547;28;19972;-71
2023/10/31 06:04:32;;;;;;;;;;;;;;;-144.99;100.00;52462.34;5081965;28;21768;-71
2023/10/31 06:06:58;;;;;;;;;;;;;;;-144.99;100.00;52517.41;5086072;28;20440;-70
2023/10/31 06:09:25;;;;;;;;;;;;;;;-144.99;100.00;52456.25;5091257;28;19938;-71
2023/10/31 06:11:51;;;;;;;;;;;;;;;-144.99;100.00;52533.69;5095143;28;19966;-71
2023/10/31 06:14:18;;;;;;;;;;;;;;;-144.99;100.00;52456.25;5088413;28;19967;-69
2023/10/31 06:16:44;;;;;;;;;;;;;;;-144.99;100.00;52484.78;5084198;28;19985;-69
2023/10/31 06:19:11;;;;;;;;;;;;;;;-144.99;100.00;52439.94;5090073;28;20354;-69
2023/10/31 06:21:39;;;;;;;;;;;;;;;-144.99;100.00;52419.56;5090600;28;19928;-69
2023/10/31 06:24:06;;;;;;;;;;;;;;;-144.99;100.00;52458.28;5090283;28;20362;-69
2023/10/31 06:26:33;;;;;;;;;;;;;;;-144.99;100.00;52480.72;5087599;28;20248;-69
2023/10/31 06:28:59;;;;;;;;;;;;;;;-144.99;100.00;52476.63;5089506;28;20030;-69
2023/10/31 06:31:26;;;;;;;;;;;;;;;-144.99;100.00;52464.41;5090338;28;19932;-68
2023/10/31 06:33:52;;;;;;;;;;;;;;;-144.99;100.00;52484.78;5090579;28;20340;-68
2023/10/31 06:36:19;;;;;;;;;;;;;;;-144.99;100.00;52492.94;5088845;28;19974;-69
2023/10/31 06:38:47;;;;;;;;;;;;;;;-144.99;100.00;52517.41;5089829;28;20390;-73
2023/10/31 06:41:13;;;;;;;;;;;;;;;-144.99;100.00;52460.31;5090604;28;19924;-72
2023/10/31 06:43:40;;;;;;;;;;;;;;;-144.99;100.00;52439.94;5091668;28;19974;-71
2023/10/31 06:46:06;;;;;;;;;;;;;;;-144.99;100.00;52458.28;5084780;28;20402;-73
2023/10/31 06:48:33;;;;;;;;;;;;;;;-144.99;100.00;52456.25;5088810;28;20252;-74
2023/10/31 06:51:00;;;;;;;;;;;;;;;-144.99;100.00;52444.03;5081858;28;19931;-72
2023/10/31 06:53:26;;;;;;;;;;;;;;;-144.99;100.00;52494.97;5088522;28;20046;-71
2023/10/31 06:55:54;;;;;;;;;;;;;;;-144.99;100.00;52464.41;5090724;28;19924;-71
2023/10/31 06:58:20;;;;;;;;;;;;;;;-144.99;100.00;52468.47;5087039;28;20019;-63
2023/10/31 07:00:47;;;;;;;;;;;;;;;-144.99;100.00;52472.56;5077928;28;19997;-65
2023/10/31 07:03:15;;;;;;;;;;;;;;;-144.99;100.00;52472.56;5086245;28;19935;-62
2023/10/31 07:05:42;;;;;;;;;;;;;;;-144.99;100.00;52517.41;5084885;28;19947;-61
2023/10/31 07:08:08;;;;;;;;;;;;;;;-144.99;100.00;52488.84;5086544;28;19928;-63
2023/10/31 07:10:35;;;;;;;;;;;;;;;-144.99;100.00;52488.84;5092088;28;19974;-62
2023/10/31 07:13:02;;;;;;;;;;;;;;;-144.99;100.00;52476.63;5090386;28;20315;-68
2023/10/31 07:15:29;;;;;;;;;;;;;;;-144.99;100.00;52468.47;5088817;28;19981;-68
2023/10/31 07:17:55;;;;;;;;;;;;;;;-144.99;100.00;52433.81;5084455;28;19940;-67
2023/10/31 07:20:22;;;;;;;;;;;;;;;-144.99;100.00;52474.59;5087277;28;20335;-68
2023/10/31 07:22:48;;;;;;;;;;;;;;;-144.99;100.00;52501.09;5089075;28;19976;-69
2023/10/31 07:25:15;;;;;;;;;;;;;;;-144.99;100.00;52488.84;5089228;28;20011;-68
2023/10/31 07:27:41;;;;;;;;;;;;;;;-144.99;100.00;52505.16;5090110;28;19928;-76
2023/10/31 07:30:10;;;;;;;;;;;;;;;-144.99;100.00;52505.16;5089747;28;20352;-76
2023/10/31 07:32:36;;;;;;;;;;;;;;;-144.99;100.00;52464.41;5085720;28;19971;-75
2023/10/31 07:35:03;;;;;;;;;;;;;;;-144.99;100.00;52472.56;5088197;28;20019;-74
2023/10/31 07:37:29;;;;;;;;;;;;;;;-144.99;100.00;52501.09;5085028;28;20070;-72
2023/10/31 07:39:56;;;;;;;;;;;;;;;-144.99;100.00;52480.72;5087879;28;20344;-69
2023/10/31 07:42:22;;;;;;;;;;;;;;;-144.99;100.00;52448.09;5086824;28;19924;-67
2023/10/31 07:44:50;;;;;;;;;;;;;;;-144.99;100.00;52450.13;5088769;28;20030;-68
2023/10/31 07:47:18;;;;;;;;;;;;;;;-144.99;100.00;52501.09;5086329;28;20354;-69
2023/10/31 07:49:44;;;;;;;;;;;;;;;-144.99;100.00;52472.56;5088849;28;19924;-68
2023/10/31 07:52:11;;;;;;;;;;;;;;;-144.99;100.00;52488.84;5078625;28;19931;-69
2023/10/31 07:54:40;;;;;;;;;;;;;;;-144.99;100.00;52484.78;5085698;28;20031;-69
2023/10/31 07:57:06;;;;;;;;;;;;;;;-144.99;100.00;52480.72;5080820;28;19933;-70
2023/10/31 07:59:34;;;;;;;;;;;;;;;-144.99;100.00;52480.72;5082439;28;19991;-64
2023/10/31 08:02:00;;;;;;;;;;;;;;;-144.99;100.00;52480.72;5087489;28;20415;-64
2023/10/31 08:04:29;;;;;;;;;;;;;;;-144.99;100.00;52431.78;5083301;28;19990;-71
2023/10/31 08:06:56;;;;;;;;;;;;;;;-144.99;100.00;52474.59;5088320;28;20294;-66
2023/10/31 08:09:22;;;;;;;;;;;;;;;-144.99;100.00;52497.00;5089227;28;19977;-77
2023/10/31 08:11:49;;;;;;;;;;;;;;;-144.99;100.00;52464.41;5074830;28;20386;-74
2023/10/31 08:14:16;;;;;;;;;;;;;;;-144.99;100.00;52444.03;5089964;28;19977;-75
2023/10/31 08:16:42;;;;;;;;;;;;;;;-144.99;100.00;52427.72;5081832;28;19928;-74
2023/10/31 08:19:09;;;;;;;;;;;;;;;-144.99;100.00;52452.16;5090282;28;19971;-77
2023/10/31 08:21:38;;;;;;;;;;;;;;;-144.99;100.00;52476.63;5085954;28;20059;-76
2023/10/31 08:24:05;;;;;;;;;;;;;;;-144.99;100.00;52427.72;5090756;28;20043;-75
2023/10/31 08:26:31;;;;;;;;;;;;;;;-144.99;100.00;52450.13;5085457;28;20027;-75
2023/10/31 08:28:58;;;;;;;;;;;;;;;-144.99;100.00;52431.78;5094045;28;19924;-75
2023/10/31 08:31:24;;;;;;;;;;;;;;;-144.99;100.00;52468.47;5087560;28;19924;-74
2023/10/31 08:33:51;;;;;;;;;;;;;;;-144.99;100.00;52480.72;5083366;28;19994;-77
2023/10/31 08:36:17;;;;;;;;;;;;;;;-144.99;100.00;52421.59;5094454;28;19967;-77
2023/10/31 08:38:45;;;;;;;;;;;;;;;-144.99;100.00;52452.16;5080153;28;19929;-75
2023/10/31 08:41:12;;;;;;;;;;;;;;;-144.99;100.00;52431.78;5094939;28;20005;-73
2023/10/31 08:43:38;;;;;;;;;;;;;;;-144.99;100.00;52435.88;5088728;28;19931;-71
2023/10/31 08:46:05;;;;;;;;;;;;;;;-144.99;100.00;52468.47;5092556;28;19967;-75
2023/10/31 08:48:33;;;;;;;;;;;;;;;-144.99;100.00;52472.56;5092269;28;20051;-75
2023/10/31 08:50:59;;;;;;;;;;;;;;;-144.99;100.00;52464.41;5093725;28;19924;-75
2023/10/31 08:53:27;;;;;;;;;;;;;;;-144.99;100.00;52456.25;5091626;28;19924;-76
2023/10/31 08:55:56;;;;;;;;;;;;;;;-144.99;100.00;52468.47;5086344;28;20393;-77
2023/10/31 08:58:22;;;;;;;;;;;;;;;-144.99;100.00;52480.72;5092492;28;19989;-69
2023/10/31 09:00:49;;;;;;;;;;;;;;;-144.99;100.00;52476.63;5092660;28;19985;-70
2023/10/31 09:03:16;;;;;;;;;;;;;;;-144.99;100.00;52488.84;5090716;28;19931;-70
2023/10/31 09:05:42;;;;;;;;;;;;;;;-144.99;100.00;52490.91;5089249;28;20023;-70
2023/10/31 09:08:10;;;;;;;;;;;;;;;-144.99;100.00;52484.78;5092145;28;19953;-70
2023/10/31 09:10:38;;;;;;;;;;;;;;;-144.99;100.00;52497.00;5097083;28;20437;-68
2023/10/31 09:13:06;;;;;;;;;;;;;;;-144.99;100.00;52497.00;5089373;28;20019;-70
2023/10/31 09:15:32;;;;;;;;;;;;;;;-144.99;100.00;52472.56;5084365;28;20060;-71
2023/10/31 09:17:59;;;;;;;;;;;;;;;-144.99;100.00;52509.25;5086810;28;19925;-71
2023/10/31 09:20:25;;;;;;;;;;;;;;;-144.99;100.00;52523.50;5091728;28;19963;-70
2023/10/31 09:22:52;;;;;;;;;;;;;;;-144.99;100.00;52497.00;5088345;28;19963;-73
2023/10/31 09:25:19;;;;;;;;;;;;;;;-144.99;100.00;52517.41;5088084;28;19924;-71
2023/10/31 09:27:45;;;;;;;;;;;;;;;-144.99;100.00;52480.72;5089065;28;19928;-71
2023/10/31 09:30:13;;;;;;;;;;;;;;;-144.99;100.00;52517.41;5090117;28;19924;-69
2023/10/31 09:32:40;;;;;;;;;;;;;;;-144.99;100.00;52523.50;5092232;28;19959;-70
2023/10/31 09:35:08;;;;;;;;;;;;;;;-144.99;100.00;52513.31;5092266;28;19924;-72
2023/10/31 09:37:34;;;;;;;;;;;;;;;-144.99;100.00;52521.47;5091304;28;19935;-72
2023/10/31 09:40:00;;;;;;;;;;;;;;;-144.99;100.00;52484.78;5089383;28;19964;-71
2023/10/31 09:42:27;;;;;;;;;;;;;;;-144.99;100.00;52464.41;5092100;28;19978;-72
2023/10/31 09:44:55;;;;;;;;;;;;;;;-144.99;100.00;52503.13;5091710;28;19993;-72
2023/10/31 09:47:23;;;;;;;;;;;;;;;-144.99;100.00;52484.78;5091719;28;19928;-73
2023/10/31 09:49:49;;;;;;;;;;;;;;;-144.99;100.00;52550.00;5091002;28;19932;-72
2023/10/31 09:52:16;;;;;;;;;;;;;;;-144.99;100.00;52494.97;5086204;28;20008;-71
2023/10/31 09:54:42;;;;;;;;;;;;;;;-144.99;100.00;52578.53;5091639;28;19924;-71
2023/10/31 09:57:11;;;;;;;;;;;;;;;-144.99;100.00;52517.41;5091457;28;20168;-70
2023/10/31 09:59:37;;;;;;;;;;;;;;;-144.99;100.00;52492.94;5091966;28;19947;-71
2023/10/31 10:02:04;;;;;;;;;;;;;;;-144.99;100.00;52539.81;5090608;28;19928;-70
2023/10/31 10:04:32;;;;;;;;;;;;;;;-144.99;100.00;52509.25;5090899;28;19963;-71
2023/10/31 10:07:02;;;;;;;;;;;;;;;-144.99;100.00;52533.69;5088850;28;20019;-71
2023/10/31 10:09:29;;;;;;;;;;;;;;;-144.99;100.00;52513.31;5089215;28;19969;-71
2023/10/31 10:11:56;;;;;;;;;;;;;;;-144.99;100.00;52509.25;5087004;28;20397;-68
2023/10/31 10:14:23;;;;;;;;;;;;;;;-144.99;100.00;52515.34;5093304;28;19924;-70
2023/10/31 10:16:50;;;;;;;;;;;;;;;-144.99;100.00;52517.41;5093922;28;19924;-71
2023/10/31 10:19:19;;;;;;;;;;;;;;;-144.99;100.00;52509.25;5093036;28;19924;-69
2023/10/31 10:21:50;;;;;;;;;;;;;;;-144.99;100.00;52509.25;5094680;28;19923;-70
2023/10/31 10:24:17;;;;;;;;;;;;;;;-144.99;100.00;52501.09;5090196;28;20427;-71
2023/10/31 10:26:44;;;;;;;;;;;;;;;-144.99;100.00;52488.84;5093587;28;19966;-70
2023/10/31 10:29:10;;;;;;;;;;;;;;;-144.99;100.00;52511.28;5091356;28;19928;-70
2023/10/31 10:31:37;;;;;;;;;;;;;;;-144.99;100.00;52492.94;5091426;28;20390;-70
2023/10/31 10:34:03;;;;;;;;;;;;;;;-144.99;100.00;52490.91;5091259;28;20366;-70
2023/10/31 10:36:33;;;;;;;;;;;;;;;-144.99;100.00;52529.63;5089056;28;20044;-70
2023/10/31 10:39:01;;;;;;;;;;;;;;;-144.99;100.00;52497.00;5090310;28;19942;-69
2023/10/31 10:41:28;;;;;;;;;;;;;;;-144.99;100.00;52513.31;5088790;28;19928;-70
2023/10/31 10:43:56;;;;;;;;;;;;;;;-144.99;100.00;52492.94;5087757;28;19928;-69
2023/10/31 10:46:25;;;;;;;;;;;;;;;-144.99;100.00;52545.94;5090915;28;19924;-70
2023/10/31 10:48:57;;;;;;;;;;;;;;;-144.99;100.00;52554.09;5091578;28;19928;-71
2023/10/31 10:51:26;;;;;;;;;;;;;;;-144.99;100.00;52525.56;5089429;28;19946;-69
2023/10/31 10:53:56;;;;;;;;;;;;;;;-144.99;100.00;52511.28;5088044;28;19924;-71
2023/10/31 10:56:27;;;;;;;;;;;;;;;-144.99;100.00;52513.31;5088355;28;19930;-71
2023/10/31 10:58:57;;;;;;;;;;;;;;;-144.99;100.00;52515.34;5088807;28;19964;-70
2023/10/31 11:01:24;;;;;;;;;;;;;;;-144.99;100.00;52505.16;5090687;28;20282;-71
2023/10/31 11:03:51;;;;;;;;;;;;;;;-144.99;100.00;52537.78;5091340;28;19924;-70
2023/10/31 11:06:19;;;;;;;;;;;;;;;-144.99;100.00;52488.84;5089709;28;19925;-71
2023/10/31 11:08:46;;;;;;;;;;;;;;;-144.99;100.00;52570.38;5090427;28;19989;-70
2023/10/31 11:11:15;;;;;;;;;;;;;;;-144.99;100.00;52521.47;5094372;28;19959;-70
2023/10/31 11:13:44;;;;;;;;;;;;;;;-144.99;100.00;52501.09;5104067;22;19936;-65
2023/10/31 11:16:14;;;;;;;;;;;;;;;-144.99;100.00;52497.00;5091864;28;19986;-66
2023/10/31 11:18:41;;;;;;;;;;;;;;;-144.99;100.00;52511.28;5097995;28;20451;-67
2023/10/31 11:21:08;;;;;;;;;;;;;;;-144.99;100.00;52472.56;5081992;28;20236;-66
2023/10/31 11:23:34;;;;;;;;;;;;;;;-144.99;100.00;52509.25;5089681;28;19928;-66
2023/10/31 11:26:01;;;;;;;;;;;;;;;-144.99;100.00;52480.72;5089745;28;20032;-66
2023/10/31 11:28:27;;;;;;;;;;;;;;;-144.99;100.00;52494.97;5089278;28;19993;-66
2023/10/31 11:31:00;;;;;;;;;;;;;;;-144.99;100.00;52492.94;5090130;28;20002;-66
2023/10/31 11:33:27;;;;;;;;;;;;;;;-144.99;100.00;52509.25;5083763;28;20228;-66
2023/10/31 11:36:00;;;;;;;;;;;;;;;-144.99;100.00;52509.25;5090491;28;19924;-67
2023/10/31 11:38:32;;;;;;;;;;;;;;;-144.99;100.00;52492.94;5091298;28;19928;-67
2023/10/31 11:41:00;;;;;;;;;;;;;;;-144.99;100.00;52525.56;5084754;28;20015;-66
2023/10/31 11:43:35;;;;;;;;;;;;;;;-144.99;100.00;52480.72;5095288;28;19935;-66
2023/10/31 11:46:04;;;;;;;;;;;;;;;-144.99;100.00;52501.09;5086077;28;19932;-68
2023/10/31 11:48:46;;;;;;;;;;;;;;;-144.99;100.00;52505.16;5081007;28;20518;-66
2023/10/31 11:51:13;;;;;;;;;;;;;;;-144.99;100.00;52472.56;5082204;28;19971;-66
2023/10/31 11:53:40;;;;;;;;;;;;;;;-144.99;100.00;52501.09;5090932;28;19977;-66
2023/10/31 11:56:07;;;;;;;;;;;;;;;-144.99;100.00;52484.78;5092961;28;20224;-66
2023/10/31 11:58:33;;;;;;;;;;;;;;;-144.99;100.00;52472.56;5075658;28;20089;-66
2023/10/31 12:01:02;;;;;;;;;;;;;;;-144.99;100.00;52515.34;5087898;28;19947;-66
2023/10/31 12:03:37;;;;;;;;;;;;;;;-144.99;100.00;52456.25;5089336;28;19928;-66
2023/10/31 12:06:04;;;;;;;;;;;;;;;-144.99;100.00;52435.88;5087669;28;19928;-66
2023/10/31 12:08:31;;;;;;;;;;;;;;;-144.99;100.00;52417.53;5089416;28;19932;-66
2023/10/31 12:11:05;;;;;;;;;;;;;;;-144.99;100.00;52456.25;5089216;28;19967;-66
2023/10/31 12:13:31;;;;;;;;;;;;;;;-144.99;100.00;52464.41;5089580;28;20381;-66
2023/10/31 12:16:00;;;;;;;;;;;;;;;-144.99;100.00;52484.78;5089160;28;20426;-66